createdAt,value
2022-11-25T00:01:23.511Z,23.70
2022-11-25T00:03:52.260Z,24.05
2022-11-25T00:06:21.194Z,23.15
2022-11-25T00:08:51.543Z,24.70
2022-11-25T00:11:19.240Z,24.40
2022-11-25T00:13:48.118Z,23.52
2022-11-25T00:16:18.748Z,23.98
2022-11-25T00:18:48.609Z,23.90
2022-11-25T00:21:18.816Z,23.33
2022-11-25T00:23:52.506Z,22.85
2022-11-25T00:26:21.479Z,23.42
2022-11-25T00:28:50.058Z,23.30
2022-11-25T00:31:19.589Z,22.90
2022-11-25T00:33:47.584Z,23.85
2022-11-25T00:36:30.541Z,22.38
2022-11-25T00:39:00.459Z,22.60
2022-11-25T00:41:47.584Z,22.67
2022-11-25T00:44:36.523Z,22.05
2022-11-25T00:47:15.503Z,22.05
2022-11-25T00:49:46.483Z,21.77
2022-11-25T00:52:16.698Z,22.30
2022-11-25T00:54:45.121Z,21.35
2022-11-25T00:57:13.306Z,20.55
2022-11-25T00:59:41.260Z,18.95
2022-11-25T01:02:10.327Z,18.20
2022-11-25T01:04:38.269Z,18.42
2022-11-25T01:07:06.877Z,19.20
2022-11-25T01:09:35.663Z,17.50
2022-11-25T01:12:05.070Z,17.52
2022-11-25T01:14:33.249Z,17.38
2022-11-25T01:17:01.069Z,18.15
2022-11-25T01:19:28.756Z,18.83
2022-11-25T01:21:56.199Z,18.08
2022-11-25T01:24:24.263Z,18.13
2022-11-25T01:26:55.808Z,19.13
2022-11-25T01:29:23.420Z,17.50
2022-11-25T01:31:57.420Z,18.20
2022-11-25T01:34:26.923Z,17.70
2022-11-25T01:36:58.211Z,18.15
2022-11-25T01:39:32.005Z,18.02
2022-11-25T01:42:01.193Z,17.73
2022-11-25T01:44:30.473Z,16.02
2022-11-25T01:47:18.712Z,16.63
2022-11-25T01:49:51.122Z,17.20
2022-11-25T01:52:43.810Z,16.20
2022-11-25T01:55:16.163Z,15.43
2022-11-25T01:57:48.742Z,15.85
2022-11-25T02:00:16.976Z,17.15
2022-11-25T02:02:53.714Z,15.45
2022-11-25T02:05:33.747Z,15.25
2022-11-25T02:08:02.140Z,16.23
2022-11-25T02:10:32.280Z,16.00
2022-11-25T02:13:00.337Z,16.85
2022-11-25T02:15:31.591Z,15.65
2022-11-25T02:17:59.179Z,16.65
2022-11-25T02:20:27.926Z,16.67
2022-11-25T02:23:25.683Z,17.92
2022-11-25T02:25:54.912Z,20.13
2022-11-25T02:28:25.215Z,18.50
2022-11-25T02:30:53.633Z,35.42
2022-11-25T02:33:21.774Z,38.63
2022-11-25T02:35:58.510Z,43.65
2022-11-25T02:38:33.597Z,77.75
2022-11-25T02:41:11.752Z,60.42
2022-11-25T02:43:40.463Z,51.17
2022-11-25T02:46:21.917Z,21.60
2022-11-25T02:49:09.315Z,21.13
2022-11-25T02:51:40.111Z,21.42
2022-11-25T02:54:10.563Z,20.70
2022-11-25T02:56:38.374Z,23.70
2022-11-25T02:59:06.096Z,22.70
2022-11-25T03:01:35.435Z,23.73
2022-11-25T03:04:07.000Z,20.85
2022-11-25T03:06:34.754Z,19.92
2022-11-25T03:09:02.344Z,20.08
2022-11-25T03:11:49.330Z,20.45
2022-11-25T03:16:44.885Z,20.70
2022-11-25T03:19:12.596Z,20.27
2022-11-25T03:21:40.301Z,19.42
2022-11-25T03:24:08.197Z,30.25
2022-11-25T03:26:35.807Z,39.00
2022-11-25T03:29:03.368Z,28.90
2022-11-25T03:31:31.826Z,25.17
2022-11-25T03:33:59.428Z,30.23
2022-11-25T03:36:26.853Z,22.80
2022-11-25T03:38:54.263Z,22.63
2022-11-25T03:41:21.654Z,21.58
2022-11-25T03:43:49.242Z,20.58
2022-11-25T03:46:17.718Z,20.05
2022-11-25T03:48:45.532Z,19.85
2022-11-25T03:51:13.591Z,18.42
2022-11-25T03:53:41.163Z,18.88
2022-11-25T03:56:10.243Z,19.38
2022-11-25T03:58:37.707Z,18.67
2022-11-25T04:01:06.772Z,17.52
2022-11-25T04:03:34.813Z,17.52
2022-11-25T04:06:02.351Z,19.10
2022-11-25T04:08:31.089Z,16.75
2022-11-25T04:10:59.514Z,17.02
2022-11-25T04:13:30.707Z,17.88
2022-11-25T04:15:58.385Z,16.50
2022-11-25T04:18:26.733Z,17.10
2022-11-25T04:20:56.851Z,17.38
2022-11-25T04:23:24.554Z,16.55
2022-11-25T04:26:02.550Z,17.63
2022-11-25T04:28:35.371Z,29.52
2022-11-25T04:31:07.042Z,23.15
2022-11-25T04:33:36.612Z,19.52
2022-11-25T04:36:04.476Z,27.08
2022-11-25T04:38:32.146Z,34.92
2022-11-25T04:40:59.937Z,20.05
2022-11-25T04:43:28.923Z,17.13
2022-11-25T04:46:17.969Z,16.92
2022-11-25T04:48:51.229Z,65.65
2022-11-25T04:51:20.050Z,22.48
2022-11-25T04:53:51.416Z,18.40
2022-11-25T04:56:20.092Z,18.38
2022-11-25T04:59:08.808Z,18.85
2022-11-25T05:01:40.269Z,20.33
2022-11-25T05:04:31.092Z,21.42
2022-11-25T05:06:58.727Z,21.02
2022-11-25T05:09:26.804Z,19.75
2022-11-25T05:12:19.711Z,19.67
2022-11-25T05:14:48.568Z,19.13
2022-11-25T05:17:19.664Z,18.35
2022-11-25T05:19:47.560Z,18.10
2022-11-25T05:22:22.267Z,17.92
2022-11-25T05:24:49.820Z,18.60
2022-11-25T05:27:18.893Z,17.65
2022-11-25T05:29:50.146Z,18.08
2022-11-25T05:32:20.458Z,17.58
2022-11-25T05:34:47.909Z,17.20
2022-11-25T05:37:17.723Z,18.27
2022-11-25T05:39:54.263Z,18.67
2022-11-25T05:42:33.894Z,17.67
2022-11-25T05:45:04.933Z,16.85
2022-11-25T05:47:33.821Z,17.77
2022-11-25T05:50:01.810Z,16.85
2022-11-25T05:52:30.728Z,15.60
2022-11-25T05:55:01.236Z,16.50
2022-11-25T05:57:29.257Z,15.50
2022-11-25T06:00:06.338Z,15.75
2022-11-25T06:02:42.600Z,15.15
2022-11-25T06:05:13.238Z,15.75
2022-11-25T06:07:40.887Z,16.88
2022-11-25T06:10:08.912Z,16.10
2022-11-25T06:12:39.004Z,15.18
2022-11-25T06:15:07.190Z,16.27
2022-11-25T06:17:36.513Z,15.82
2022-11-25T06:20:10.615Z,15.50
2022-11-25T06:22:38.302Z,15.05
2022-11-25T06:25:06.663Z,14.70
2022-11-25T06:28:04.641Z,15.15
2022-11-25T06:30:24.549Z,14.48
2022-11-25T06:33:06.539Z,14.60
2022-11-25T06:35:34.058Z,16.23
2022-11-25T06:38:03.381Z,16.25
2022-11-25T06:40:30.992Z,15.60
2022-11-25T06:42:58.593Z,15.45
2022-11-25T06:45:26.177Z,16.30
2022-11-25T06:47:54.063Z,17.75
2022-11-25T06:50:21.620Z,17.55
2022-11-25T06:52:49.080Z,16.88
2022-11-25T06:55:17.424Z,16.52
2022-11-25T06:57:45.138Z,16.65
2022-11-25T07:00:13.037Z,17.30
2022-11-25T07:02:45.313Z,17.38
2022-11-25T07:05:15.698Z,17.90
2022-11-25T07:07:43.341Z,18.50
2022-11-25T07:10:11.109Z,18.13
2022-11-25T07:12:38.704Z,17.63
2022-11-25T07:15:06.721Z,18.60
2022-11-25T07:17:34.212Z,16.63
2022-11-25T07:20:01.684Z,17.30
2022-11-25T07:22:29.212Z,18.25
2022-11-25T07:24:56.803Z,18.13
2022-11-25T07:27:24.270Z,18.25
2022-11-25T07:30:03.484Z,19.33
2022-11-25T07:32:39.267Z,19.70
2022-11-25T07:35:07.140Z,18.52
2022-11-25T07:37:34.718Z,18.40
2022-11-25T07:40:02.203Z,19.25
2022-11-25T07:42:29.745Z,19.45
2022-11-25T07:44:57.370Z,19.30
2022-11-25T07:47:41.240Z,18.77
2022-11-25T07:50:09.134Z,18.23
2022-11-25T07:52:40.373Z,19.33
2022-11-25T07:55:08.290Z,19.35
2022-11-25T07:57:35.892Z,19.20
2022-11-25T08:00:04.850Z,17.65
2022-11-25T08:02:39.210Z,17.45
2022-11-25T08:05:07.351Z,18.50
2022-11-25T08:07:36.726Z,16.33
2022-11-25T08:10:04.740Z,15.30
2022-11-25T08:12:32.924Z,16.20
2022-11-25T08:15:00.416Z,16.02
2022-11-25T08:17:27.828Z,16.02
2022-11-25T08:19:55.528Z,16.63
2022-11-25T08:22:23.227Z,16.58
2022-11-25T08:24:50.649Z,17.52
2022-11-25T08:27:18.052Z,17.45
2022-11-25T08:29:45.465Z,17.27
2022-11-25T08:32:12.826Z,18.33
2022-11-25T08:34:43.672Z,17.58
2022-11-25T08:37:12.615Z,15.75
2022-11-25T08:39:56.082Z,14.43
2022-11-25T08:42:24.051Z,13.68
2022-11-25T08:44:53.653Z,12.75
2022-11-25T08:47:22.388Z,13.05
2022-11-25T08:49:54.119Z,12.43
2022-11-25T08:52:22.730Z,11.88
2022-11-25T08:54:58.927Z,12.07
2022-11-25T08:57:26.384Z,12.88
2022-11-25T08:59:54.132Z,12.65
2022-11-25T09:02:21.591Z,12.40
2022-11-25T09:07:53.362Z,11.52
2022-11-25T09:10:21.854Z,11.10
2022-11-25T09:12:49.390Z,12.45
2022-11-25T09:15:16.945Z,12.00
2022-11-25T09:17:44.426Z,12.60
2022-11-25T09:20:12.355Z,11.95
2022-11-25T09:22:40.004Z,11.80
2022-11-25T09:25:08.034Z,11.52
2022-11-25T09:27:35.437Z,12.60
2022-11-25T09:30:03.148Z,12.77
2022-11-25T09:32:30.762Z,12.13
2022-11-25T09:34:58.314Z,12.40
2022-11-25T09:37:25.710Z,12.43
2022-11-25T09:39:56.083Z,11.52
2022-11-25T09:43:02.608Z,11.25
2022-11-25T09:49:00.353Z,11.52
2022-11-25T09:51:55.260Z,11.40
2022-11-25T09:54:30.542Z,11.13
2022-11-25T09:59:59.600Z,11.70
2022-11-25T10:02:37.811Z,11.57
2022-11-25T10:05:27.528Z,11.88
2022-11-25T10:08:01.708Z,11.30
2022-11-25T10:10:36.573Z,11.98
2022-11-25T10:13:05.713Z,12.68
2022-11-25T10:15:40.344Z,11.27
2022-11-25T10:18:51.834Z,11.05
2022-11-25T10:21:19.294Z,10.57
2022-11-25T10:23:46.743Z,10.90
2022-11-25T10:26:16.527Z,10.73
2022-11-25T10:28:56.036Z,9.98
2022-11-25T10:31:36.434Z,11.07
2022-11-25T10:34:18.483Z,10.63
2022-11-25T10:36:47.170Z,10.30
2022-11-25T10:39:18.392Z,10.25
2022-11-25T10:42:08.415Z,10.70
2022-11-25T10:44:41.100Z,9.98
2022-11-25T10:47:32.847Z,10.18
2022-11-25T10:50:27.482Z,10.00
2022-11-25T10:53:13.126Z,10.20
2022-11-25T10:55:57.694Z,9.45
2022-11-25T10:58:37.910Z,9.82
2022-11-25T11:01:20.411Z,10.18
2022-11-25T11:04:03.560Z,9.35
2022-11-25T11:06:36.464Z,9.00
2022-11-25T11:09:04.368Z,8.98
2022-11-25T11:11:32.457Z,7.65
2022-11-25T11:14:13.861Z,8.23
2022-11-25T11:16:45.431Z,7.43
2022-11-25T11:19:31.156Z,7.00
2022-11-25T11:22:16.551Z,7.00
2022-11-25T11:24:44.024Z,6.25
2022-11-25T11:27:24.844Z,5.20
2022-11-25T11:30:10.875Z,4.78
2022-11-25T11:32:42.376Z,5.07
2022-11-25T11:35:22.212Z,4.80
2022-11-25T11:37:54.461Z,4.53
2022-11-25T11:40:46.654Z,4.93
2022-11-25T11:43:39.430Z,4.88
2022-11-25T11:46:15.725Z,4.80
2022-11-25T11:48:53.556Z,4.57
2022-11-25T11:51:29.958Z,4.47
2022-11-25T11:54:21.027Z,4.95
2022-11-25T11:56:57.923Z,4.93
2022-11-25T11:59:38.294Z,5.00
2022-11-25T12:02:23.860Z,5.15
2022-11-25T12:05:17.773Z,5.47
2022-11-25T12:07:45.184Z,5.22
2022-11-25T12:10:15.902Z,5.07
2022-11-25T12:13:20.336Z,5.60
2022-11-25T12:16:13.196Z,5.63
2022-11-25T12:18:53.795Z,5.63
2022-11-25T12:21:56.824Z,4.90
2022-11-25T12:24:42.784Z,5.30
2022-11-25T12:27:21.371Z,5.75
2022-11-25T12:30:08.082Z,5.40
2022-11-25T12:32:38.237Z,4.90
2022-11-25T12:35:11.423Z,5.55
2022-11-25T12:37:46.061Z,6.20
2022-11-25T12:40:44.307Z,6.70
2022-11-25T12:43:20.716Z,6.72
2022-11-25T12:45:54.604Z,6.90
2022-11-25T12:48:22.114Z,6.45
2022-11-25T12:51:17.257Z,6.90
2022-11-25T12:53:57.933Z,6.80
2022-11-25T12:56:44.807Z,7.35
2022-11-25T12:59:58.008Z,7.47
2022-11-25T13:02:50.922Z,8.23
2022-11-25T13:05:46.181Z,7.80
2022-11-25T13:08:28.500Z,7.90
2022-11-25T13:11:24.220Z,6.90
2022-11-25T13:14:13.688Z,6.72
2022-11-25T13:16:45.955Z,6.78
2022-11-25T13:19:18.119Z,6.65
2022-11-25T13:22:06.395Z,5.97
2022-11-25T13:24:39.436Z,5.22
2022-11-25T13:27:29.736Z,5.07
2022-11-25T13:29:58.132Z,5.50
2022-11-25T13:32:25.545Z,5.28
2022-11-25T13:35:30.985Z,5.50
2022-11-25T13:37:58.479Z,5.45
2022-11-25T13:40:26.453Z,5.30
2022-11-25T13:42:55.534Z,5.55
2022-11-25T13:45:44.549Z,5.97
2022-11-25T13:48:19.921Z,5.50
2022-11-25T13:51:11.755Z,5.72
2022-11-25T13:53:38.968Z,5.65
2022-11-25T13:56:36.606Z,5.68
2022-11-25T13:59:16.664Z,6.30
2022-11-25T14:01:46.880Z,6.10
2022-11-25T14:04:16.437Z,6.07
2022-11-25T14:06:51.294Z,5.97
2022-11-25T14:09:27.574Z,5.95
2022-11-25T14:12:06.242Z,6.22
2022-11-25T14:15:09.070Z,6.28
2022-11-25T14:18:02.609Z,6.35
2022-11-25T14:20:47.905Z,6.72
2022-11-25T14:23:26.638Z,6.35
2022-11-25T14:25:57.623Z,6.68
2022-11-25T14:28:42.217Z,7.00
2022-11-25T14:31:16.550Z,7.20
2022-11-25T14:33:51.078Z,8.43
2022-11-25T14:36:26.655Z,7.77
2022-11-25T14:39:02.184Z,8.20
2022-11-25T14:41:37.143Z,8.20
2022-11-25T14:44:14.422Z,7.82
2022-11-25T14:46:57.888Z,8.07
2022-11-25T14:49:51.664Z,8.18
2022-11-25T14:52:35.973Z,8.80
2022-11-25T14:55:05.794Z,8.80
2022-11-25T14:57:37.352Z,9.85
2022-11-25T15:00:15.537Z,9.55
2022-11-25T15:03:18.007Z,9.57
2022-11-25T15:05:54.416Z,10.07
2022-11-25T15:08:22.970Z,11.45
2022-11-25T15:10:58.163Z,10.27
2022-11-25T15:13:35.983Z,10.77
2022-11-25T15:16:15.992Z,11.63
2022-11-25T15:19:14.695Z,11.70
2022-11-25T15:22:07.501Z,11.50
2022-11-25T15:24:40.394Z,12.13
2022-11-25T15:27:23.088Z,11.90
2022-11-25T15:29:52.297Z,13.38
2022-11-25T15:32:26.295Z,13.55
2022-11-25T15:34:56.220Z,13.50
2022-11-25T15:37:24.390Z,13.57
2022-11-25T15:40:28.936Z,13.10
2022-11-25T15:43:02.511Z,13.57
2022-11-25T15:45:45.794Z,12.77
2022-11-25T15:48:18.407Z,13.40
2022-11-25T15:50:45.887Z,13.50
2022-11-25T15:53:27.621Z,13.00
2022-11-25T15:56:01.570Z,11.82
2022-11-25T15:58:29.183Z,12.77
2022-11-25T16:01:07.540Z,12.80
2022-11-25T16:03:35.667Z,12.57
2022-11-25T16:06:28.330Z,12.57
2022-11-25T16:09:01.019Z,13.45
2022-11-25T16:11:33.542Z,13.20
2022-11-25T16:14:26.298Z,14.15
2022-11-25T16:17:03.270Z,14.25
2022-11-25T16:19:38.155Z,13.65
2022-11-25T16:22:06.362Z,13.68
2022-11-25T16:24:38.503Z,13.82
2022-11-25T16:27:27.977Z,14.85
2022-11-25T16:30:16.997Z,14.82
2022-11-25T16:32:44.569Z,16.13
2022-11-25T16:35:18.426Z,15.90
2022-11-25T16:37:49.306Z,15.98
2022-11-25T16:40:19.085Z,17.60
2022-11-25T16:42:48.814Z,17.90
2022-11-25T16:45:28.120Z,16.50
2022-11-25T16:47:55.638Z,15.95
2022-11-25T16:50:23.565Z,17.48
2022-11-25T16:52:51.018Z,17.33
2022-11-25T16:55:18.699Z,16.00
2022-11-25T16:57:46.949Z,16.75
2022-11-25T17:00:17.034Z,16.92
2022-11-25T17:02:45.263Z,16.23
2022-11-25T17:05:24.726Z,16.23
2022-11-25T17:07:52.882Z,16.88
2022-11-25T17:10:20.682Z,16.70
2022-11-25T17:12:48.691Z,17.60
2022-11-25T17:15:24.514Z,15.43
2022-11-25T17:17:52.514Z,17.70
2022-11-25T17:20:24.868Z,16.60
2022-11-25T17:22:53.718Z,17.30
2022-11-25T17:25:23.547Z,17.58
2022-11-25T17:27:51.696Z,17.15
2022-11-25T17:30:23.600Z,16.42
2022-11-25T17:33:06.693Z,16.38
2022-11-25T17:35:34.057Z,16.05
2022-11-25T17:38:01.817Z,16.38
2022-11-25T17:40:29.373Z,16.50
2022-11-25T17:42:57.193Z,16.15
2022-11-25T17:45:24.721Z,17.35
2022-11-25T17:47:52.176Z,16.02
2022-11-25T17:50:22.478Z,17.23
2022-11-25T17:52:50.500Z,16.00
2022-11-25T17:55:22.034Z,16.25
2022-11-25T17:57:49.746Z,16.63
2022-11-25T18:00:20.957Z,17.40
2022-11-25T18:02:49.689Z,17.27
2022-11-25T18:05:20.475Z,16.48
2022-11-25T18:07:48.152Z,15.80
2022-11-25T18:10:21.850Z,16.35
2022-11-25T18:12:52.264Z,16.50
2022-11-25T18:15:25.366Z,17.58
2022-11-25T18:18:04.082Z,18.40
2022-11-25T18:20:33.152Z,18.65
2022-11-25T18:23:01.259Z,18.58
2022-11-25T18:25:33.931Z,17.17
2022-11-25T18:28:03.954Z,18.27
2022-11-25T18:30:34.237Z,18.38
2022-11-25T18:33:02.230Z,17.55
2022-11-25T18:35:36.489Z,19.20
2022-11-25T18:38:04.950Z,17.55
2022-11-25T18:40:33.631Z,17.73
2022-11-25T18:43:03.414Z,18.27
2022-11-25T18:45:34.376Z,18.58
2022-11-25T18:48:02.367Z,17.95
2022-11-25T18:50:31.574Z,18.30
2022-11-25T18:52:59.045Z,18.35
2022-11-25T18:55:27.077Z,17.88
2022-11-25T18:57:54.622Z,19.13
2022-11-25T19:00:32.242Z,18.25
2022-11-25T19:03:01.271Z,19.85
2022-11-25T19:05:32.390Z,19.15
2022-11-25T19:07:59.995Z,18.48
2022-11-25T19:10:31.322Z,19.38
2022-11-25T19:13:02.866Z,19.95
2022-11-25T19:15:30.376Z,19.92
2022-11-25T19:18:00.838Z,20.13
2022-11-25T19:20:30.112Z,21.00
2022-11-25T19:23:00.892Z,20.77
2022-11-25T19:25:29.483Z,20.17
2022-11-25T19:27:59.576Z,20.50
2022-11-25T19:30:30.449Z,19.10
2022-11-25T19:33:01.486Z,19.67
2022-11-25T19:35:35.766Z,20.25
2022-11-25T19:38:11.261Z,19.52
2022-11-25T19:43:08.756Z,20.25
2022-11-25T19:45:37.267Z,19.58
2022-11-25T19:48:08.274Z,19.75
2022-11-25T19:50:38.915Z,18.70
2022-11-25T19:53:14.077Z,20.23
2022-11-25T19:55:41.752Z,19.42
2022-11-25T19:58:09.162Z,19.17
2022-11-25T20:00:36.957Z,19.88
2022-11-25T20:03:06.167Z,20.33
2022-11-25T20:05:38.143Z,19.77
2022-11-25T20:08:06.204Z,20.08
2022-11-25T20:10:33.609Z,18.92
2022-11-25T20:13:00.991Z,19.40
2022-11-25T20:15:28.362Z,19.48
2022-11-25T20:18:00.250Z,20.15
2022-11-25T20:20:40.682Z,19.95
2022-11-25T20:23:15.404Z,20.13
2022-11-25T20:25:45.828Z,22.08
2022-11-25T20:28:25.866Z,20.90
2022-11-25T20:30:53.919Z,21.55
2022-11-25T20:33:24.616Z,22.30
2022-11-25T20:36:03.305Z,22.48
2022-11-25T20:38:32.860Z,21.42
2022-11-25T20:41:01.052Z,20.38
2022-11-25T20:43:38.837Z,22.00
2022-11-25T20:46:13.773Z,22.30
2022-11-25T20:48:42.296Z,24.17
2022-11-25T20:51:18.903Z,23.08
2022-11-25T20:53:58.452Z,23.88
2022-11-25T20:56:28.036Z,23.85
2022-11-25T20:58:57.445Z,23.88
2022-11-25T21:01:25.267Z,24.67
2022-11-25T21:03:53.814Z,24.35
2022-11-25T21:06:27.600Z,23.58
2022-11-25T21:08:58.422Z,22.70
2022-11-25T21:11:27.936Z,23.40
2022-11-25T21:13:55.572Z,23.20
2022-11-25T21:16:23.196Z,23.95
2022-11-25T21:18:50.706Z,24.10
2022-11-25T21:21:45.416Z,23.38
2022-11-25T21:24:32.171Z,22.38
2022-11-25T21:27:02.843Z,22.98
2022-11-25T21:29:31.621Z,23.25
2022-11-25T21:31:59.242Z,23.63
2022-11-25T21:34:26.794Z,22.85
2022-11-25T21:36:54.859Z,23.65
2022-11-25T21:39:30.234Z,23.33
2022-11-25T21:42:05.002Z,23.58
2022-11-25T21:44:39.666Z,22.75
2022-11-25T21:47:13.178Z,24.10
2022-11-25T21:49:40.638Z,33.03
2022-11-25T21:52:08.047Z,27.23
2022-11-25T21:54:35.807Z,27.45
2022-11-25T21:57:03.571Z,29.58
2022-11-25T21:59:31.468Z,23.60
2022-11-25T22:01:58.846Z,22.85
2022-11-25T22:04:26.439Z,30.52
2022-11-25T22:06:54.516Z,27.23
2022-11-25T22:09:22.278Z,27.35
2022-11-25T22:11:50.578Z,27.27
2022-11-25T22:14:34.685Z,25.08
2022-11-25T22:17:05.349Z,22.70
2022-11-25T22:19:33.208Z,22.48
2022-11-25T22:22:00.736Z,22.95
2022-11-25T22:24:29.849Z,22.80
2022-11-25T22:26:58.327Z,21.02
2022-11-25T22:29:32.830Z,22.33
2022-11-25T22:32:00.788Z,21.50
2022-11-25T22:34:28.630Z,21.50
2022-11-25T22:36:56.094Z,21.58
2022-11-25T22:39:25.777Z,20.52
2022-11-25T22:42:03.503Z,20.80
2022-11-25T22:44:45.766Z,21.15
2022-11-25T22:47:36.196Z,19.52
2022-11-25T22:50:14.187Z,20.40
2022-11-25T22:52:41.601Z,19.65
2022-11-25T22:55:18.140Z,19.42
2022-11-25T22:57:46.772Z,21.35
2022-11-25T23:00:20.410Z,20.27
2022-11-25T23:02:49.073Z,19.55
2022-11-25T23:05:24.485Z,19.63
2022-11-25T23:07:55.493Z,19.05
2022-11-25T23:10:26.498Z,19.00
2022-11-25T23:12:54.849Z,18.38
2022-11-25T23:15:24.203Z,17.23
2022-11-25T23:17:56.949Z,17.77
2022-11-25T23:20:34.872Z,18.27
2022-11-25T23:23:12.418Z,16.48
2022-11-25T23:25:39.762Z,17.58
2022-11-25T23:28:07.241Z,17.27
2022-11-25T23:30:35.191Z,18.05
2022-11-25T23:33:04.096Z,17.55
2022-11-25T23:35:38.600Z,17.98
2022-11-25T23:38:08.813Z,18.13
2022-11-25T23:40:36.375Z,17.73
2022-11-25T23:43:11.954Z,17.67
2022-11-25T23:48:12.103Z,17.80
2022-11-25T23:50:40.823Z,17.25
2022-11-25T23:53:21.340Z,17.58
2022-11-25T23:55:49.812Z,17.05
2022-11-25T23:58:20.239Z,17.95
